createdAt,value
2018-09-10T00:00:00.349Z,5.83
2018-09-10T00:02:35.713Z,5.37
2018-09-10T00:05:10.192Z,5.20
2018-09-10T00:07:44.627Z,6.00
2018-09-10T00:10:20.553Z,5.13
2018-09-10T00:12:55.817Z,5.83
2018-09-10T00:15:30.250Z,5.27
2018-09-10T00:18:05.650Z,6.03
2018-09-10T00:20:40.920Z,5.60
2018-09-10T00:23:15.631Z,6.27
2018-09-10T00:25:50.132Z,5.27
2018-09-10T00:28:25.731Z,5.53
2018-09-10T00:31:01.205Z,5.57
2018-09-10T00:33:35.990Z,6.57
2018-09-10T00:36:10.942Z,5.80
2018-09-10T00:38:45.355Z,5.33
2018-09-10T00:43:58.894Z,5.97
2018-09-10T00:46:33.933Z,5.90
2018-09-10T00:49:08.836Z,5.30
2018-09-10T00:51:43.176Z,6.90
2018-09-10T00:54:17.677Z,4.97
2018-09-10T00:56:52.103Z,5.40
2018-09-10T00:59:27.366Z,5.70
2018-09-10T01:02:01.917Z,5.67
2018-09-10T01:04:36.991Z,6.17
2018-09-10T01:07:12.118Z,5.90
2018-09-10T01:09:47.627Z,5.20
2018-09-10T01:12:22.215Z,6.37
2018-09-10T01:14:57.445Z,4.80
2018-09-10T01:17:32.034Z,5.47
2018-09-10T01:20:06.591Z,4.77
2018-09-10T01:22:41.734Z,4.70
2018-09-10T01:25:16.117Z,9.57
2018-09-10T01:27:50.818Z,8.17
2018-09-10T01:30:26.001Z,5.70
2018-09-10T01:33:01.644Z,6.00
2018-09-10T01:35:36.074Z,4.70
2018-09-10T01:38:11.832Z,4.93
2018-09-10T01:40:46.852Z,5.03
2018-09-10T01:43:21.283Z,6.20
2018-09-10T01:45:55.742Z,4.80
2018-09-10T01:48:30.116Z,6.13
2018-09-10T01:51:05.439Z,5.97
2018-09-10T01:53:40.514Z,5.60
2018-09-10T01:56:15.325Z,5.87
2018-09-10T01:58:52.379Z,5.10
2018-09-10T02:01:27.114Z,5.17
2018-09-10T02:04:01.571Z,7.63
2018-09-10T02:06:36.659Z,5.07
2018-09-10T02:09:11.342Z,4.93
2018-09-10T02:11:45.791Z,5.53
2018-09-10T02:14:21.007Z,5.47
2018-09-10T02:16:56.317Z,6.13
2018-09-10T02:19:30.806Z,5.13
2018-09-10T02:22:06.030Z,7.17
2018-09-10T02:24:40.577Z,5.47
2018-09-10T02:27:15.386Z,5.50
2018-09-10T02:29:49.970Z,6.03
2018-09-10T02:32:25.262Z,5.53
2018-09-10T02:34:59.697Z,5.33
2018-09-10T02:37:34.229Z,5.27
2018-09-10T02:40:08.627Z,6.10
2018-09-10T02:42:43.877Z,5.63
2018-09-10T02:45:18.670Z,5.37
2018-09-10T02:47:53.257Z,6.63
2018-09-10T02:50:27.775Z,5.83
2018-09-10T02:53:02.202Z,6.80
2018-09-10T02:55:37.973Z,6.60
2018-09-10T02:58:15.465Z,5.40
2018-09-10T03:00:50.278Z,4.70
2018-09-10T03:03:25.009Z,4.83
2018-09-10T03:05:59.510Z,5.33
2018-09-10T03:08:36.229Z,6.77
2018-09-10T03:11:10.774Z,5.07
2018-09-10T03:13:46.017Z,7.33
2018-09-10T03:16:20.442Z,5.30
2018-09-10T03:18:54.892Z,6.03
2018-09-10T03:21:29.294Z,6.27
2018-09-10T03:24:03.845Z,5.47
2018-09-10T03:26:38.202Z,5.83
2018-09-10T03:29:12.739Z,5.30
2018-09-10T03:31:47.116Z,5.97
2018-09-10T03:34:21.522Z,6.10
2018-09-10T03:36:55.956Z,6.47
2018-09-10T03:39:30.420Z,6.83
2018-09-10T03:42:04.929Z,5.90
2018-09-10T03:44:40.152Z,7.37
2018-09-10T03:47:14.620Z,5.77
2018-09-10T03:49:49.041Z,5.73
2018-09-10T03:52:23.438Z,6.03
2018-09-10T03:54:58.223Z,5.40
2018-09-10T03:57:32.603Z,5.70
2018-09-10T04:00:07.102Z,5.17
2018-09-10T04:02:41.547Z,6.97
2018-09-10T04:05:17.563Z,7.23
2018-09-10T04:07:51.997Z,5.33
2018-09-10T04:10:26.457Z,5.60
2018-09-10T04:13:00.965Z,6.33
2018-09-10T04:15:35.333Z,5.60
2018-09-10T04:18:09.863Z,6.83
2018-09-10T04:20:44.306Z,6.20
2018-09-10T04:23:18.811Z,5.67
2018-09-10T04:25:53.341Z,6.07
2018-09-10T04:28:27.916Z,7.17
2018-09-10T04:31:02.385Z,5.63
2018-09-10T04:33:36.808Z,6.77
2018-09-10T04:36:11.287Z,5.67
2018-09-10T04:38:45.623Z,5.93
2018-09-10T04:41:19.999Z,5.40
2018-09-10T04:43:54.479Z,7.37
2018-09-10T04:46:29.769Z,4.87
2018-09-10T04:49:04.213Z,6.33
2018-09-10T04:51:38.597Z,7.37
2018-09-10T04:54:14.065Z,5.70
2018-09-10T04:56:49.027Z,6.33
2018-09-10T04:59:23.695Z,6.47
2018-09-10T05:01:58.587Z,6.80
2018-09-10T05:04:33.140Z,6.50
2018-09-10T05:07:07.728Z,5.90
2018-09-10T05:09:43.262Z,5.93
2018-09-10T05:12:21.301Z,5.30
2018-09-10T05:14:55.894Z,7.17
2018-09-10T05:17:30.341Z,6.03
2018-09-10T05:20:06.464Z,6.27
2018-09-10T05:22:40.855Z,5.57
2018-09-10T05:25:15.308Z,6.37
2018-09-10T05:27:50.373Z,9.07
2018-09-10T05:30:24.755Z,6.97
2018-09-10T05:32:59.213Z,6.97
2018-09-10T05:35:33.851Z,5.87
2018-09-10T05:38:09.006Z,6.13
2018-09-10T05:40:43.537Z,5.87
2018-09-10T05:43:17.938Z,6.00
2018-09-10T05:45:52.353Z,10.53
2018-09-10T05:48:26.882Z,5.87
2018-09-10T05:51:02.950Z,7.60
2018-09-10T05:53:37.419Z,5.83
2018-09-10T05:56:11.979Z,5.63
2018-09-10T05:58:46.460Z,6.33
2018-09-10T06:01:21.518Z,7.27
2018-09-10T06:03:56.026Z,6.30
2018-09-10T06:06:30.455Z,8.20
2018-09-10T06:09:06.055Z,6.73
2018-09-10T06:11:40.502Z,6.30
2018-09-10T06:14:15.127Z,6.80
2018-09-10T06:16:49.967Z,6.67
2018-09-10T06:19:25.368Z,8.20
2018-09-10T06:21:59.828Z,6.50
2018-09-10T06:24:34.266Z,6.87
2018-09-10T06:27:08.724Z,6.97
2018-09-10T06:29:43.859Z,6.80
2018-09-10T06:32:20.447Z,6.43
2018-09-10T06:34:54.984Z,6.83
2018-09-10T06:37:29.396Z,7.33
2018-09-10T06:40:06.279Z,7.33
2018-09-10T06:42:40.735Z,7.57
2018-09-10T06:45:15.540Z,8.03
2018-09-10T06:47:51.229Z,7.37
2018-09-10T06:50:25.886Z,8.33
2018-09-10T06:53:02.114Z,8.57
2018-09-10T06:55:36.660Z,9.93
2018-09-10T06:58:13.069Z,7.67
2018-09-10T07:00:47.489Z,6.87
2018-09-10T07:03:21.910Z,6.87
2018-09-10T07:05:56.954Z,6.73
2018-09-10T07:08:31.384Z,6.53
2018-09-10T07:11:07.328Z,6.30
2018-09-10T07:13:42.528Z,6.90
2018-09-10T07:16:17.229Z,6.23
2018-09-10T07:18:51.796Z,6.67
2018-09-10T07:21:26.735Z,6.47
2018-09-10T07:24:02.019Z,6.10
2018-09-10T07:26:37.314Z,6.20
2018-09-10T07:29:12.205Z,5.77
2018-09-10T07:31:46.654Z,6.87
2018-09-10T07:34:21.088Z,6.13
2018-09-10T07:36:55.476Z,6.00
2018-09-10T07:39:29.961Z,6.50
2018-09-10T07:42:05.052Z,6.57
2018-09-10T07:44:39.656Z,5.87
2018-09-10T07:47:14.446Z,5.33
2018-09-10T07:49:48.872Z,5.90
2018-09-10T07:52:23.720Z,5.50
2018-09-10T07:54:58.642Z,6.13
2018-09-10T07:57:33.183Z,6.40
2018-09-10T08:00:08.258Z,6.03
2018-09-10T08:02:42.743Z,5.67
2018-09-10T08:05:17.225Z,5.77
2018-09-10T08:07:52.333Z,6.57
2018-09-10T08:10:27.281Z,5.80
2018-09-10T08:13:02.054Z,5.87
2018-09-10T08:15:36.482Z,5.20
2018-09-10T08:18:10.866Z,5.77
2018-09-10T08:20:45.774Z,5.40
2018-09-10T08:23:20.183Z,5.83
2018-09-10T08:25:54.570Z,6.13
2018-09-10T08:28:29.653Z,6.27
2018-09-10T08:31:04.046Z,4.97
2018-09-10T08:33:39.181Z,5.53
2018-09-10T08:36:13.670Z,6.40
2018-09-10T08:38:48.102Z,6.00
2018-09-10T08:41:23.979Z,5.70
2018-09-10T08:43:59.028Z,7.27
2018-09-10T08:46:33.539Z,5.30
2018-09-10T08:49:07.945Z,5.50
2018-09-10T08:51:42.385Z,5.80
2018-09-10T08:54:16.924Z,5.27
2018-09-10T08:56:51.226Z,5.77
2018-09-10T08:59:25.619Z,5.30
2018-09-10T09:02:00.069Z,5.43
2018-09-10T09:04:35.138Z,5.20
2018-09-10T09:07:09.842Z,4.73
2018-09-10T09:09:44.974Z,6.27
2018-09-10T09:12:20.293Z,5.20
2018-09-10T09:14:54.691Z,4.85
2018-09-10T09:17:29.191Z,4.70
2018-09-10T09:20:03.598Z,5.30
2018-09-10T09:22:38.028Z,4.78
2018-09-10T09:25:12.418Z,7.40
2018-09-10T09:27:46.833Z,5.55
2018-09-10T09:30:21.273Z,4.28
2018-09-10T09:32:55.654Z,4.97
2018-09-10T09:35:35.385Z,5.17
2018-09-10T09:38:15.016Z,4.35
2018-09-10T09:40:54.623Z,6.08
2018-09-10T09:43:35.113Z,6.05
2018-09-10T09:46:12.081Z,5.78
2018-09-10T09:48:46.617Z,5.05
2018-09-10T09:51:21.019Z,5.25
2018-09-10T09:53:55.450Z,4.87
2018-09-10T09:56:29.915Z,4.80
2018-09-10T09:59:04.285Z,5.05
2018-09-10T10:01:40.766Z,6.70
2018-09-10T10:04:15.265Z,5.03
2018-09-10T10:06:50.375Z,4.90
2018-09-10T10:09:24.805Z,5.65
2018-09-10T10:11:59.218Z,5.78
2018-09-10T10:14:34.798Z,5.47
2018-09-10T10:17:09.254Z,5.85
2018-09-10T10:19:43.657Z,5.67
2018-09-10T10:22:18.266Z,4.97
2018-09-10T10:24:52.871Z,5.20
2018-09-10T10:27:27.274Z,6.60
2018-09-10T10:30:01.705Z,5.42
2018-09-10T10:32:36.238Z,5.40
2018-09-10T10:35:10.618Z,5.50
2018-09-10T10:37:45.059Z,4.80
2018-09-10T10:40:19.433Z,4.83
2018-09-10T10:42:53.819Z,5.30
2018-09-10T10:45:28.224Z,5.40
2018-09-10T10:48:03.227Z,4.45
2018-09-10T10:50:37.768Z,4.40
2018-09-10T10:53:12.342Z,4.50
2018-09-10T10:55:47.098Z,4.83
2018-09-10T11:01:08.250Z,5.17
2018-09-10T11:03:42.689Z,4.65
2018-09-10T11:06:17.111Z,5.03
2018-09-10T11:08:54.531Z,4.80
2018-09-10T11:11:58.747Z,4.30
2018-09-10T11:14:33.162Z,4.50
2018-09-10T11:17:07.536Z,4.55
2018-09-10T11:19:41.947Z,4.30
2018-09-10T11:22:16.355Z,4.05
2018-09-10T11:24:50.789Z,3.75
2018-09-10T11:27:25.554Z,3.83
2018-09-10T11:29:59.983Z,3.33
2018-09-10T11:32:35.142Z,2.80
2018-09-10T11:35:50.625Z,2.72
2018-09-10T11:38:26.003Z,3.00
2018-09-10T11:41:03.137Z,3.17
2018-09-10T11:43:40.767Z,3.72
2018-09-10T11:46:15.528Z,3.10
2018-09-10T11:48:50.996Z,2.62
2018-09-10T11:51:25.951Z,4.67
2018-09-10T12:44:44.652Z,2.62
2018-09-10T12:47:19.077Z,2.65
2018-09-10T12:49:53.558Z,2.75
2018-09-10T12:52:35.356Z,2.95
2018-09-10T12:55:14.358Z,4.95
2018-09-10T12:57:48.749Z,3.20
2018-09-10T13:00:23.305Z,3.92
2018-09-10T13:02:57.739Z,4.87
2018-09-10T13:05:33.138Z,3.30
2018-09-10T13:08:07.950Z,3.87
2018-09-10T13:10:42.340Z,3.92
2018-09-10T13:13:17.771Z,3.92
2018-09-10T13:15:52.908Z,4.20
2018-09-10T13:18:27.302Z,3.87
2018-09-10T13:21:01.802Z,3.95
2018-09-10T13:23:36.183Z,5.28
2018-09-10T13:26:10.647Z,4.17
2018-09-10T13:28:45.094Z,3.98
2018-09-10T13:31:19.575Z,6.35
2018-09-10T13:33:54.007Z,3.70
2018-09-10T13:36:28.481Z,4.53
2018-09-10T13:39:03.044Z,4.67
2018-09-10T13:41:37.502Z,4.12
2018-09-10T13:44:11.933Z,4.53
2018-09-10T13:46:46.386Z,4.78
2018-09-10T13:49:20.896Z,4.78
2018-09-10T13:51:55.340Z,4.45
2018-09-10T13:54:29.823Z,6.05
2018-09-10T13:57:04.248Z,4.00
2018-09-10T13:59:38.676Z,4.60
2018-09-10T14:02:13.245Z,6.25
2018-09-10T14:04:47.660Z,4.78
2018-09-10T14:07:22.066Z,4.60
2018-09-10T14:09:56.496Z,5.05
2018-09-10T14:12:30.911Z,4.05
2018-09-10T14:15:05.392Z,3.90
2018-09-10T14:17:39.923Z,3.83
2018-09-10T14:20:14.439Z,4.25
2018-09-10T14:22:48.919Z,4.30
2018-09-10T14:25:23.295Z,4.90
2018-09-10T14:27:57.716Z,4.72
2018-09-10T14:30:32.188Z,4.60
2018-09-10T14:33:06.683Z,4.47
2018-09-10T14:35:41.204Z,4.33
2018-09-10T14:38:15.643Z,4.10
2018-09-10T14:40:50.180Z,4.30
2018-09-10T14:43:24.562Z,5.05
2018-09-10T14:45:58.949Z,4.53
2018-09-10T14:48:33.365Z,4.60
2018-09-10T14:51:07.769Z,4.12
2018-09-10T14:53:42.750Z,4.92
2018-09-10T14:56:17.138Z,3.72
2018-09-10T14:58:51.761Z,5.47
2018-09-10T15:01:26.193Z,5.67
2018-09-10T15:04:00.618Z,4.10
2018-09-10T15:06:35.043Z,4.05
2018-09-10T15:09:09.929Z,4.95
2018-09-10T15:11:44.335Z,4.47
2018-09-10T15:14:18.777Z,4.72
2018-09-10T15:16:53.173Z,5.17
2018-09-10T15:19:27.603Z,4.22
2018-09-10T15:22:02.070Z,4.10
2018-09-10T15:24:36.492Z,4.20
2018-09-10T15:27:10.859Z,4.42
2018-09-10T15:29:45.281Z,4.92
2018-09-10T15:32:19.659Z,4.45
2018-09-10T15:34:54.088Z,6.47
2018-09-10T15:37:28.448Z,6.15
2018-09-10T15:40:02.951Z,5.47
2018-09-10T15:42:37.382Z,7.28
2018-09-10T15:45:11.811Z,4.25
2018-09-10T15:47:46.290Z,5.45
2018-09-10T15:50:20.721Z,3.80
2018-09-10T15:52:55.124Z,5.12
2018-09-10T15:55:29.502Z,4.92
2018-09-10T15:58:03.958Z,5.37
2018-09-10T16:00:38.337Z,4.80
2018-09-10T16:03:12.798Z,4.17
2018-09-10T16:05:47.288Z,4.75
2018-09-10T16:08:21.787Z,4.37
2018-09-10T16:10:56.204Z,3.90
2018-09-10T16:13:30.638Z,4.35
2018-09-10T16:16:04.985Z,4.28
2018-09-10T16:18:39.432Z,4.85
2018-09-10T16:21:13.966Z,4.60
2018-09-10T16:23:48.405Z,4.05
2018-09-10T16:26:22.867Z,5.37
2018-09-10T16:28:57.259Z,5.22
2018-09-10T16:31:32.031Z,4.37
2018-09-10T16:34:06.554Z,4.30
2018-09-10T16:36:41.066Z,5.72
2018-09-10T16:39:15.492Z,4.60
2018-09-10T16:41:49.927Z,4.40
2018-09-10T16:44:24.334Z,4.30
2018-09-10T16:46:58.743Z,4.72
2018-09-10T16:49:33.109Z,6.12
2018-09-10T16:52:07.650Z,4.72
2018-09-10T16:54:42.133Z,5.10
2018-09-10T16:57:16.482Z,5.42
2018-09-10T16:59:50.904Z,4.60
2018-09-10T17:02:25.309Z,5.45
2018-09-10T17:04:59.737Z,7.70
2018-09-10T17:07:34.179Z,4.60
2018-09-10T17:10:08.646Z,7.08
2018-09-10T17:12:43.396Z,6.25
2018-09-10T17:15:17.763Z,5.58
2018-09-10T17:17:52.205Z,6.35
2018-09-10T17:20:26.641Z,5.75
2018-09-10T17:23:01.583Z,4.37
2018-09-10T17:25:36.014Z,6.92
2018-09-10T17:28:10.411Z,5.50
2018-09-10T17:30:44.842Z,5.87
2018-09-10T17:33:19.344Z,5.92
2018-09-10T17:35:53.715Z,5.85
2018-09-10T17:38:28.402Z,7.25
2018-09-10T17:41:02.816Z,5.03
2018-09-10T17:43:37.330Z,6.20
2018-09-10T17:46:11.778Z,6.13
2018-09-10T17:48:46.420Z,4.72
2018-09-10T17:51:20.885Z,4.53
2018-09-10T17:53:55.351Z,4.77
2018-09-10T17:56:29.779Z,5.73
2018-09-10T17:59:04.460Z,7.23
2018-09-10T18:01:38.930Z,5.20
2018-09-10T18:04:15.204Z,5.00
2018-09-10T18:06:50.101Z,7.73
2018-09-10T18:09:24.506Z,4.83
2018-09-10T18:11:58.885Z,5.43
2018-09-10T18:14:33.240Z,4.77
2018-09-10T18:17:07.619Z,6.47
2018-09-10T18:19:42.097Z,9.40
2018-09-10T18:22:16.453Z,5.07
2018-09-10T18:24:50.906Z,7.83
2018-09-10T18:27:25.256Z,5.37
2018-09-10T18:29:59.704Z,5.93
2018-09-10T18:32:34.087Z,4.87
2018-09-10T18:35:08.538Z,4.73
2018-09-10T18:37:42.901Z,5.47
2018-09-10T18:40:17.362Z,6.43
2018-09-10T18:42:51.801Z,7.70
2018-09-10T18:45:26.843Z,6.00
2018-09-10T18:48:01.247Z,5.43
2018-09-10T18:50:35.653Z,5.77
2018-09-10T18:53:10.164Z,7.27
2018-09-10T18:55:44.627Z,4.53
2018-09-10T18:58:19.059Z,5.73
2018-09-10T19:00:53.519Z,6.30
2018-09-10T19:03:27.851Z,5.00
2018-09-10T19:06:02.363Z,7.07
2018-09-10T19:08:37.560Z,5.13
2018-09-10T19:11:12.025Z,7.97
2018-09-10T19:13:46.418Z,5.30
2018-09-10T19:16:20.875Z,5.90
2018-09-10T19:18:55.315Z,6.47
2018-09-10T19:21:29.714Z,7.57
2018-09-10T19:24:04.104Z,5.73
2018-09-10T19:26:38.573Z,7.67
2018-09-10T19:29:12.989Z,9.17
2018-09-10T19:31:50.187Z,6.97
2018-09-10T19:34:24.574Z,5.73
2018-09-10T19:36:59.386Z,6.07
2018-09-10T19:39:33.832Z,6.40
2018-09-10T19:42:09.242Z,6.50
2018-09-10T19:44:44.098Z,8.47
2018-09-10T19:47:18.520Z,8.10
2018-09-10T19:49:53.015Z,10.17
2018-09-10T19:52:27.438Z,8.33
2018-09-10T19:55:01.878Z,7.77
2018-09-10T19:57:36.453Z,12.17
2018-09-10T20:00:10.918Z,8.87
2018-09-10T20:02:45.295Z,8.20
2018-09-10T20:05:19.786Z,7.67
2018-09-10T20:07:54.521Z,6.93
2018-09-10T20:10:28.917Z,8.23
2018-09-10T20:13:03.254Z,9.93
2018-09-10T20:15:37.623Z,8.43
2018-09-10T20:18:12.025Z,11.13
2018-09-10T20:20:46.370Z,7.23
2018-09-10T20:23:20.745Z,7.40
2018-09-10T20:25:55.074Z,7.70
2018-09-10T20:28:29.432Z,8.03
2018-09-10T20:31:04.167Z,8.97
2018-09-10T20:34:11.922Z,8.03
2018-09-10T20:36:46.322Z,8.73
2018-09-10T20:39:20.667Z,8.63
2018-09-10T20:41:55.058Z,7.40
2018-09-10T20:44:30.362Z,7.53
2018-09-10T20:47:04.747Z,7.73
2018-09-10T20:49:39.201Z,7.30
2018-09-10T20:52:13.689Z,11.60
2018-09-10T20:54:48.173Z,8.50
2018-09-10T20:57:22.538Z,10.33
2018-09-10T20:59:56.939Z,10.97
2018-09-10T21:02:31.323Z,9.90
2018-09-10T21:05:06.090Z,10.27
2018-09-10T21:07:40.517Z,10.03
2018-09-10T21:10:14.858Z,7.70
2018-09-10T21:12:49.227Z,8.80
2018-09-10T21:15:23.720Z,7.97
2018-09-10T21:17:58.098Z,7.20
2018-09-10T21:20:32.483Z,10.00
2018-09-10T21:23:06.841Z,7.33
2018-09-10T21:25:41.209Z,11.43
2018-09-10T21:28:15.599Z,11.60
2018-09-10T21:30:50.014Z,9.40
2018-09-10T21:33:24.377Z,9.80
2018-09-10T21:35:59.099Z,11.27
2018-09-10T21:38:33.505Z,10.00
2018-09-10T21:41:07.937Z,9.00
2018-09-10T21:43:42.326Z,8.83
2018-09-10T21:46:16.701Z,11.53
2018-09-10T21:48:51.093Z,9.73
2018-09-10T21:51:25.478Z,10.83
2018-09-10T21:53:59.811Z,9.43
2018-09-10T21:56:34.185Z,13.40
2018-09-10T21:59:08.678Z,10.27
2018-09-10T22:01:43.136Z,8.77
2018-09-10T22:04:17.501Z,11.93
2018-09-10T22:06:51.915Z,11.53
2018-09-10T22:09:26.352Z,9.77
2018-09-10T22:12:03.581Z,11.37
2018-09-10T22:14:37.950Z,10.80
2018-09-10T22:17:12.446Z,9.37
2018-09-10T22:19:46.880Z,11.07
2018-09-10T22:22:21.314Z,8.73
2018-09-10T22:24:55.674Z,8.37
2018-09-10T22:27:30.030Z,9.63
2018-09-10T22:30:04.874Z,9.03
2018-09-10T22:32:39.211Z,10.03
2018-09-10T22:35:13.735Z,11.77
2018-09-10T22:37:48.150Z,8.70
2018-09-10T22:40:22.619Z,9.83
2018-09-10T22:42:56.956Z,8.77
2018-09-10T22:45:31.338Z,9.13
2018-09-10T22:48:05.937Z,10.07
2018-09-10T22:50:40.277Z,8.60
2018-09-10T22:53:14.654Z,8.13
2018-09-10T22:55:49.018Z,8.67
2018-09-10T22:58:23.529Z,8.47
2018-09-10T23:00:57.942Z,8.30
2018-09-10T23:03:32.306Z,7.83
2018-09-10T23:06:06.693Z,8.37
2018-09-10T23:08:41.111Z,8.20
2018-09-10T23:11:15.477Z,8.13
2018-09-10T23:13:50.011Z,8.63
2018-09-10T23:16:24.409Z,8.23
2018-09-10T23:18:58.789Z,8.23
2018-09-10T23:21:33.162Z,7.27
2018-09-10T23:24:07.613Z,7.70
2018-09-10T23:26:41.978Z,10.27
2018-09-10T23:29:16.384Z,8.00
2018-09-10T23:31:50.781Z,7.40
2018-09-10T23:34:25.191Z,8.00
2018-09-10T23:36:59.557Z,8.87
2018-09-10T23:39:33.919Z,8.43
2018-09-10T23:42:08.274Z,8.03
2018-09-10T23:44:42.669Z,7.40
2018-09-10T23:47:17.026Z,6.97
2018-09-10T23:49:51.444Z,7.33
2018-09-10T23:52:25.781Z,7.67
2018-09-10T23:55:00.215Z,7.87
2018-09-10T23:57:34.628Z,7.37
